Have a Safe July 4th! 

Flight Track Log - Related Links

Times and Time Zones

All times are in EDT time to prevent confusion due to time zone crossing. See the UAL5669 flight status page for this flight to view local times or setup timezone preferences in your user account.

Time Position Orientation Groundspeed Altitude Reporting Facility
EDT Latitude Longitude Course Direction KTS MPH feet Rate Location/Type
Fri 01:15:00 PM 43.6333 -79.6167 121° Southeast 150 173 1,800  Level Toronto Center
Fri 01:16:00 PM 43.6000 -79.6833 235° Southwest 200 230 3,300 1,700 Climbing Toronto Center
Fri 01:17:00 PM 43.5500 -79.7000 194° South 240 276 5,200 2,000 Climbing Toronto Center
Fri 01:18:00 PM 43.5167 -79.6167 119° Southeast 280 322 7,300 2,100 Climbing Toronto Center
Fri 01:19:00 PM 43.4282 -79.1348 117° Southeast  Level Estimated
Fri 01:19:00 PM 43.5167 -79.5000 90° East 300 345 9,400  Level Toronto Center
Fri 01:20:00 PM 43.3804 -79.0405 121° Southeast  Level Estimated
Fri 01:20:00 PM 43.5167 -79.3833 90° East 300 345 11,000  Level Toronto Center
Fri 01:21:00 PM 43.5000 -79.2500 100° East 340 391 11,900 1,000 Climbing Toronto Center
Fri 01:22:00 PM 43.4833 -79.1000 99° East 370 426 13,000 1,250 Climbing Toronto Center
Fri 01:23:00 PM 43.4500 -78.9833 111° Southeast 370 426 14,400 1,250 Climbing Toronto Center
Fri 01:24:00 PM 43.4000 -78.8500 117° Southeast 380 437 15,500 1,059 Climbing Toronto Center
Fri 01:24:59 PM 43.3439 -78.7586 130° Southeast 381 438 16,500 1,091 Climbing Cleveland Center
Fri 01:26:01 PM 43.2844 -78.6389 124° Southeast 379 436 17,700 1,258 Climbing Cleveland Center
Fri 01:27:03 PM 43.2283 -78.5186 123° Southeast 377 434 19,100 1,355 Climbing Cleveland Center
Fri 01:28:05 PM 43.1681 -78.4053 126° Southeast 368 423 20,500 1,306 Climbing Cleveland Center
Fri 01:29:07 PM 43.1092 -78.2897 125° Southeast 371 427 21,800 1,210 Climbing Cleveland Center
Fri 01:30:09 PM 43.0419 -78.1478 123° Southeast 371 427 23,000 774 Climbing Cleveland Center
Fri 01:31:11 PM 43.0064 -78.0069 109° East 393 452 23,400 677 Climbing Cleveland Center
Fri 01:32:13 PM 42.9714 -77.8644 109° East 395 455 24,400 1,016 Climbing Cleveland Center
Fri 01:33:15 PM 42.9369 -77.7242 108° East 388 447 25,500 1,008 Climbing Cleveland Center
Fri 01:34:18 PM 42.9022 -77.5839 109° East 386 444 26,500 720 Climbing Cleveland Center
Fri 01:35:20 PM 42.8667 -77.4425 109° East 388 447 27,000 242 Climbing Cleveland Center
Fri 01:36:22 PM 42.8297 -77.2928 109° East 408 470 27,000  Level Cleveland Center
Fri 01:37:24 PM 42.7825 -77.1050 109° East 432 497 27,000  Level Cleveland Center
Fri 01:38:25 PM 42.7478 -76.9703 109° East 423 487 27,000  Level Boston Center
Fri 01:39:25 PM 42.7061 -76.8089 109° East 436 502 27,000  Level Boston Center
Fri 01:40:23 PM 42.6644 -76.6450 109° East 447 514 27,000  Level Boston Center
Fri 01:41:23 PM 42.6031 -76.4939 119° Southeast 452 520 27,000  Level Boston Center
Fri 01:42:23 PM 42.5353 -76.3514 123° Southeast 457 526 27,000  Level Boston Center
Fri 01:43:24 PM 42.4714 -76.2039 120° Southeast 457 526 27,000 -645 Level Boston Center
Fri 01:44:24 PM 42.4031 -76.0592 123° Southeast 457 526 25,700 -1,488 Descending Boston Center
Fri 01:45:25 PM 42.3428 -75.9236 121° Southeast 443 510 24,000 -1,636 Descending Boston Center
Fri 01:46:25 PM 42.2764 -75.7739 121° Southeast 432 497 22,400 -1,550 Descending Boston Center
Fri 01:47:25 PM 42.2175 -75.6472 122° Southeast 414 476 20,900 -1,525 Descending Boston Center
Fri 01:48:23 PM 42.1564 -75.5153 122° Southeast 414 476 19,400 -1,475 Descending Boston Center
Fri 01:49:23 PM 42.0953 -75.3864 123° Southeast 414 476 18,000 -694 Descending Boston Center
Fri 01:50:24 PM 42.0403 -75.2525 119° Southeast 414 476 18,000  Level Boston Center
Fri 01:51:25 PM 41.9853 -75.1131 118° Southeast 419 482 18,000  Level Boston Center
Fri 01:52:23 PM 41.9383 -74.9856 116° Southeast 419 482 18,000 -153 Level Boston Center
Fri 01:53:23 PM 41.8792 -74.8325 117° Southeast 419 482 17,700 -595 Descending Boston Center
Fri 01:54:24 PM 41.8317 -74.7081 117° Southeast 419 482 16,800 -992 Descending Boston Center
Fri 01:55:24 PM 41.7781 -74.5642 117° Southeast 404 465 15,700 -1,488 Descending Boston Center
Fri 01:56:25 PM 41.7344 -74.4486 117° Southeast 393 452 13,800 -2,132 Descending Boston Center
Fri 01:57:25 PM 41.6656 -74.3297 128° Southeast 388 447 11,400 -1,815 Descending Boston Center
Fri 01:58:24 PM 41.5844 -74.3217 176° South 338 389 10,200 -1,462 Descending Boston Center
Fri 01:59:24 PM 41.5025 -74.3528 196° South 288 331 8,500 -1,239 Descending Boston Center
Fri 02:00:59 PM 41.3833 -74.4000 197° South 266 306 7,000 -604 Descending New York TRACON
Fri 02:01:53 PM 41.3167 -74.4333 201° Southwest 270 311 7,000  Level New York TRACON
Fri 02:02:53 PM 41.2500 -74.4667 201° Southwest 281 323 7,000 -48 Level New York TRACON
Fri 02:03:59 PM 41.1667 -74.5000 197° South 277 319 6,900 -524 Descending New York TRACON
Fri 02:04:59 PM 41.1000 -74.4500 151° Southeast 278 320 5,900 -1,000 Descending New York TRACON
Fri 02:05:53 PM 41.0667 -74.3833 124° Southeast 267 307 5,000 -474 Descending New York TRACON
Fri 02:06:53 PM 41.0167 -74.3167 135° Southeast 260 299 5,000 -400 Level New York TRACON
Fri 02:07:53 PM 40.9667 -74.2500 135° Southeast 257 296 4,200 -524 Descending New York TRACON
Fri 02:08:59 PM 40.9167 -74.1667 128° Southeast 238 274 3,900 -600 Descending New York TRACON
Fri 02:09:53 PM 40.8833 -74.1167 131° Southeast 216 249 3,000 -737 Descending New York TRACON
Fri 02:10:53 PM 40.8333 -74.1000 166° South 199 229 2,500 -600 Descending New York TRACON
Fri 02:11:53 PM 40.7833 -74.1167 194° South 181 208 1,800 -800 Descending New York TRACON
Fri 02:12:53 PM 40.7333 -74.1333 194° South 155 178 900 -900 Descending New York TRACON

Login

Don't have an account? Register now (free) for customized features, flight alerts, and more!